Cranks, Kentucky
Current Conditions -  °F | °C
As of 11:55 AM on Friday 28 Nov 2014 (Local Time) from K0VG Reporting Station
Clear Clear  
Wind Chill: 27°   Ceiling: Unl
Heat Index: 32°   Visibility: 10mi
Dew Point: 18°   Wind: 5mph
Humidity: 55%   Direction: 250°WSW
Pressure: 30.39"   Gusts: NA
Location:  36.76°N, 83.17°W
Report Text: K0VG 281655Z AUTO 25004KT 10SM CLR 00/M08 A3039 RMK AO2
Loading
Personal Weather Stations






























Interactive Weather Map New forecast layout! Learn more

10-Day Weather Forecast

Advertisements
Track Severe Weather on mobile